VDMK weather

Mondulkiri Airport
Sen Monorom, Mondol Kiri, Cambodia

Public forecast

Using degrees Celsius for public forecast. Weather courtesy of forecast.io.

METAR (pilot weather report)

Closest report is Tan Son Nhat International Airport, 103.7 nm (192.0 km) SSW. Retrieved 2019/04/24 21:30 UTC (2 minutes ago):

VVTS 242130Z 12007KT 9999 SCT017 29/26 Q1006 NOSIG

TAF (pilot weather forecast)

Closest forecast is Tan Son Nhat International Airport, 103.7 nm (192.0 km) SSW. Retrieved 2019/04/24 18:37 UTC (3 hours ago):

TAF VVTS 241700Z 2418/2524 13008KT 9999 SCT017